createdAt,value
2023-05-14T00:00:04.319Z,8.80
2023-05-14T00:02:31.109Z,8.82
2023-05-14T00:04:57.763Z,8.25
2023-05-14T00:07:30.887Z,8.57
2023-05-14T00:09:58.369Z,9.63
2023-05-14T00:12:26.481Z,9.55
2023-05-14T00:14:53.814Z,9.40
2023-05-14T00:17:20.430Z,8.52
2023-05-14T00:19:47.224Z,8.80
2023-05-14T00:22:14.011Z,8.63
2023-05-14T00:24:40.664Z,9.80
2023-05-14T00:27:07.748Z,9.13
2023-05-14T00:29:34.471Z,10.52
2023-05-14T00:32:01.035Z,10.40
2023-05-14T00:34:27.601Z,9.52
2023-05-14T00:36:54.269Z,8.52
2023-05-14T00:39:20.911Z,9.23
2023-05-14T00:41:47.458Z,10.43
2023-05-14T00:44:14.204Z,9.07
2023-05-14T00:46:41.385Z,9.85
2023-05-14T00:49:08.354Z,9.70
2023-05-14T00:51:34.944Z,10.15
2023-05-14T00:54:01.626Z,10.50
2023-05-14T00:56:28.408Z,9.27
2023-05-14T00:58:54.944Z,9.60
2023-05-14T01:01:21.809Z,9.43
2023-05-14T01:03:49.086Z,9.75
2023-05-14T01:06:21.989Z,9.48
2023-05-14T01:09:16.231Z,9.23
2023-05-14T01:11:52.910Z,9.50
2023-05-14T01:14:38.610Z,8.63
2023-05-14T01:17:06.798Z,9.25
2023-05-14T01:19:44.314Z,9.25
2023-05-14T01:22:11.892Z,8.50
2023-05-14T01:24:38.933Z,9.25
2023-05-14T01:27:29.970Z,9.73
2023-05-14T01:30:08.268Z,9.07
2023-05-14T01:32:36.498Z,8.88
2023-05-14T01:35:03.967Z,9.67
2023-05-14T01:37:32.548Z,9.30
2023-05-14T01:40:00.369Z,9.80
2023-05-14T01:42:31.151Z,9.20
2023-05-14T01:44:58.116Z,9.40
2023-05-14T01:47:24.768Z,9.13
2023-05-14T01:49:51.367Z,9.30
2023-05-14T01:52:21.198Z,9.27
2023-05-14T01:54:48.762Z,8.85
2023-05-14T01:57:15.428Z,9.55
2023-05-14T01:59:42.182Z,8.80
2023-05-14T02:02:08.759Z,9.45
2023-05-14T02:04:35.548Z,9.63
2023-05-14T02:07:02.126Z,8.90
2023-05-14T02:09:28.821Z,9.77
2023-05-14T02:11:55.669Z,9.07
2023-05-14T02:14:22.243Z,8.73
2023-05-14T02:16:49.050Z,9.35
2023-05-14T02:19:15.756Z,8.38
2023-05-14T02:21:42.342Z,8.82
2023-05-14T02:24:08.900Z,8.43
2023-05-14T02:26:35.503Z,8.55
2023-05-14T02:29:02.071Z,10.07
2023-05-14T02:31:28.718Z,9.25
2023-05-14T02:33:55.485Z,9.52
2023-05-14T02:36:22.039Z,8.70
2023-05-14T02:38:48.607Z,9.20
2023-05-14T02:41:15.139Z,9.65
2023-05-14T02:43:41.726Z,9.45
2023-05-14T02:46:08.296Z,9.10
2023-05-14T02:48:37.408Z,9.03
2023-05-14T02:51:04.029Z,9.38
2023-05-14T02:53:31.796Z,9.00
2023-05-14T02:55:58.377Z,9.25
2023-05-14T02:58:28.523Z,9.82
2023-05-14T03:00:55.506Z,9.27
2023-05-14T03:03:22.703Z,9.73
2023-05-14T03:05:49.748Z,9.80
2023-05-14T03:08:16.326Z,8.68
2023-05-14T03:10:42.897Z,9.35
2023-05-14T03:13:09.456Z,9.07
2023-05-14T03:15:36.197Z,8.98
2023-05-14T03:18:02.795Z,9.43
2023-05-14T03:20:29.430Z,8.75
2023-05-14T03:22:56.302Z,9.18
2023-05-14T03:25:22.980Z,9.40
2023-05-14T03:27:49.734Z,8.93
2023-05-14T03:30:16.397Z,9.65
2023-05-14T03:32:43.139Z,9.55
2023-05-14T03:35:09.837Z,8.77
2023-05-14T03:37:38.689Z,8.73
2023-05-14T03:40:06.300Z,8.95
2023-05-14T03:42:33.564Z,8.82
2023-05-14T03:45:00.112Z,7.93
2023-05-14T03:47:26.741Z,9.55
2023-05-14T03:49:53.900Z,8.57
2023-05-14T03:52:20.486Z,7.32
2023-05-14T03:54:47.052Z,8.07
2023-05-14T03:57:13.609Z,8.27
2023-05-14T03:59:40.157Z,8.98
2023-05-14T04:02:07.744Z,8.37
2023-05-14T04:04:34.416Z,8.38
2023-05-14T04:07:01.042Z,8.00
2023-05-14T04:09:27.856Z,7.75
2023-05-14T04:11:54.408Z,8.68
2023-05-14T04:14:21.017Z,8.57
2023-05-14T04:16:47.899Z,8.32
2023-05-14T04:19:14.556Z,8.52
2023-05-14T04:21:41.127Z,7.53
2023-05-14T04:24:08.322Z,7.68
2023-05-14T04:26:37.846Z,7.37
2023-05-14T04:29:04.391Z,7.55
2023-05-14T04:31:31.859Z,7.00
2023-05-14T04:33:58.488Z,7.07
2023-05-14T04:36:25.070Z,6.80
2023-05-14T04:38:51.825Z,6.67
2023-05-14T04:41:18.469Z,6.30
2023-05-14T04:43:45.032Z,7.57
2023-05-14T04:46:11.698Z,5.78
2023-05-14T04:48:38.461Z,6.65
2023-05-14T04:51:07.116Z,6.47
2023-05-14T04:53:34.206Z,5.90
2023-05-14T04:56:00.770Z,6.43
2023-05-14T04:58:29.404Z,6.22
2023-05-14T05:00:55.980Z,6.07
2023-05-14T05:03:22.604Z,5.90
2023-05-14T05:05:49.316Z,5.63
2023-05-14T05:08:16.124Z,6.18
2023-05-14T05:10:42.715Z,5.88
2023-05-14T05:13:09.373Z,6.00
2023-05-14T05:15:35.954Z,5.30
2023-05-14T05:18:02.799Z,5.75
2023-05-14T05:20:29.430Z,5.53
2023-05-14T05:22:56.075Z,6.05
2023-05-14T05:25:22.642Z,6.47
2023-05-14T05:27:49.257Z,6.53
2023-05-14T05:30:15.858Z,6.00
2023-05-14T05:32:44.088Z,7.20
2023-05-14T05:35:10.947Z,5.95
2023-05-14T05:37:37.528Z,5.63
2023-05-14T05:40:05.423Z,5.90
2023-05-14T05:42:32.182Z,5.07
2023-05-14T05:44:58.770Z,5.20
2023-05-14T05:47:25.422Z,5.15
2023-05-14T05:49:52.401Z,5.15
2023-05-14T05:52:18.972Z,6.00
2023-05-14T05:54:46.052Z,8.48
2023-05-14T05:57:12.616Z,7.35
2023-05-14T05:59:39.514Z,6.22
2023-05-14T06:02:06.981Z,6.05
2023-05-14T06:04:33.636Z,5.10
2023-05-14T06:07:00.186Z,4.80
2023-05-14T06:09:26.729Z,5.55
2023-05-14T06:11:53.328Z,4.57
2023-05-14T06:14:19.859Z,4.97
2023-05-14T06:16:46.664Z,4.90
2023-05-14T06:19:13.777Z,4.80
2023-05-14T06:21:40.839Z,5.32
2023-05-14T06:24:07.577Z,4.95
2023-05-14T06:26:34.157Z,4.32
2023-05-14T06:29:01.313Z,4.37
2023-05-14T06:31:27.911Z,3.65
2023-05-14T06:33:54.477Z,4.53
2023-05-14T06:36:21.053Z,4.28
2023-05-14T06:38:48.760Z,3.85
2023-05-14T06:41:15.352Z,4.23
2023-05-14T06:43:42.005Z,4.53
2023-05-14T06:46:08.762Z,4.72
2023-05-14T06:48:35.498Z,4.78
2023-05-14T06:51:03.406Z,5.05
2023-05-14T06:53:29.983Z,4.60
2023-05-14T06:55:56.822Z,4.93
2023-05-14T06:58:23.446Z,4.65
2023-05-14T07:00:49.994Z,4.95
2023-05-14T07:03:16.790Z,5.18
2023-05-14T07:05:45.283Z,4.67
2023-05-14T07:08:12.096Z,4.30
2023-05-14T07:10:39.298Z,4.75
2023-05-14T07:13:06.378Z,4.80
2023-05-14T07:15:32.968Z,5.35
2023-05-14T07:17:59.529Z,4.67
2023-05-14T07:20:26.517Z,5.15
2023-05-14T07:22:53.284Z,4.90
2023-05-14T07:25:19.882Z,4.22
2023-05-14T07:27:46.411Z,5.20
2023-05-14T07:30:13.467Z,4.90
2023-05-14T07:32:40.219Z,4.38
2023-05-14T07:35:07.250Z,4.60
2023-05-14T07:37:34.076Z,4.22
2023-05-14T07:40:00.742Z,4.47
2023-05-14T07:42:35.886Z,4.53
2023-05-14T07:45:04.280Z,4.53
2023-05-14T07:47:31.048Z,4.30
2023-05-14T07:49:57.952Z,3.95
2023-05-14T07:52:24.887Z,4.40
2023-05-14T07:54:52.184Z,3.80
2023-05-14T07:57:19.649Z,3.78
2023-05-14T07:59:46.628Z,4.07
2023-05-14T08:02:14.228Z,3.72
2023-05-14T08:04:40.863Z,3.78
2023-05-14T08:07:08.714Z,3.67
2023-05-14T08:09:35.413Z,3.50
2023-05-14T08:12:02.319Z,3.50
2023-05-14T08:14:29.049Z,3.70
2023-05-14T08:16:55.901Z,3.72
2023-05-14T08:19:23.403Z,3.70
2023-05-14T08:21:50.464Z,3.70
2023-05-14T08:24:17.582Z,4.18
2023-05-14T08:26:44.138Z,4.35
2023-05-14T08:29:11.923Z,4.47
2023-05-14T08:31:39.451Z,4.00
2023-05-14T08:34:06.531Z,3.60
2023-05-14T08:36:33.202Z,3.25
2023-05-14T08:38:59.784Z,3.13
2023-05-14T08:41:26.796Z,3.10
2023-05-14T08:44:12.984Z,3.40
2023-05-14T08:46:40.836Z,2.83
2023-05-14T08:49:43.104Z,3.05
2023-05-14T08:52:10.280Z,2.90
2023-05-14T08:54:37.123Z,2.88
2023-05-14T08:57:05.283Z,3.20
2023-05-14T08:59:31.986Z,3.25
2023-05-14T09:02:02.016Z,3.00
2023-05-14T09:04:29.835Z,2.95
2023-05-14T09:06:56.643Z,3.25
2023-05-14T09:09:23.615Z,2.50
2023-05-14T09:11:51.663Z,3.30
2023-05-14T09:14:19.184Z,3.25
2023-05-14T09:16:48.550Z,3.15
2023-05-14T09:19:16.016Z,3.38
2023-05-14T09:21:45.491Z,2.70
2023-05-14T09:24:24.076Z,3.08
2023-05-14T09:26:56.405Z,3.05
2023-05-14T09:29:28.384Z,3.08
2023-05-14T09:31:56.240Z,3.45
2023-05-14T09:34:27.817Z,3.17
2023-05-14T09:36:59.400Z,2.90
2023-05-14T09:39:26.775Z,2.90
2023-05-14T09:41:53.946Z,2.67
2023-05-14T09:44:21.248Z,3.10
2023-05-14T09:46:49.122Z,2.63
2023-05-14T09:49:16.225Z,2.30
2023-05-14T09:51:43.055Z,3.03
2023-05-14T09:54:10.241Z,2.42
2023-05-14T09:56:37.857Z,2.58
2023-05-14T09:59:04.582Z,2.90
2023-05-14T10:01:33.429Z,2.33
2023-05-14T10:04:00.772Z,2.78
2023-05-14T10:06:30.680Z,2.80
2023-05-14T10:09:01.552Z,2.95
2023-05-14T10:11:32.548Z,2.80
2023-05-14T10:14:09.157Z,2.30
2023-05-14T10:16:40.587Z,2.80
2023-05-14T10:19:12.034Z,2.65
2023-05-14T10:21:41.242Z,3.33
2023-05-14T10:24:09.873Z,2.30
2023-05-14T10:26:39.585Z,3.00
2023-05-14T10:29:07.007Z,2.60
2023-05-14T10:31:47.825Z,2.38
2023-05-14T10:34:41.116Z,2.40
2023-05-14T10:37:10.741Z,2.70
2023-05-14T10:39:48.641Z,1.92
2023-05-14T10:42:21.590Z,2.35
2023-05-14T10:45:02.633Z,2.25
2023-05-14T10:47:29.945Z,2.55
2023-05-14T10:49:59.764Z,2.30
2023-05-14T10:52:26.642Z,2.30
2023-05-14T10:54:56.055Z,2.63
2023-05-14T10:57:26.451Z,1.98
2023-05-14T10:59:58.802Z,2.50
2023-05-14T11:02:32.672Z,2.00
2023-05-14T11:05:04.450Z,1.98
2023-05-14T11:07:42.458Z,2.20
2023-05-14T11:10:13.116Z,2.50
2023-05-14T11:12:42.256Z,2.40
2023-05-14T11:15:11.011Z,2.67
2023-05-14T11:17:40.461Z,2.55
2023-05-14T11:20:08.183Z,2.47
2023-05-14T11:22:36.162Z,2.38
2023-05-14T11:25:03.311Z,2.63
2023-05-14T11:27:31.224Z,1.93
2023-05-14T11:29:58.514Z,2.20
2023-05-14T11:32:26.161Z,2.45
2023-05-14T11:34:53.055Z,2.13
2023-05-14T11:37:20.425Z,2.05
2023-05-14T11:39:52.327Z,2.27
2023-05-14T11:42:21.388Z,2.17
2023-05-14T11:44:49.863Z,2.15
2023-05-14T11:47:18.778Z,2.63
2023-05-14T11:49:46.177Z,2.25
2023-05-14T11:52:15.032Z,1.80
2023-05-14T11:54:43.232Z,2.30
2023-05-14T11:57:16.408Z,1.70
2023-05-14T11:59:43.560Z,1.98
2023-05-14T12:02:15.371Z,2.10
2023-05-14T12:04:42.884Z,1.83
2023-05-14T12:07:11.868Z,1.73
2023-05-14T12:09:51.857Z,2.10
2023-05-14T12:12:21.481Z,1.40
2023-05-14T12:14:49.518Z,2.25
2023-05-14T12:17:19.135Z,1.80
2023-05-14T12:19:47.648Z,1.35
2023-05-14T12:22:18.907Z,1.70
2023-05-14T12:24:59.417Z,1.50
2023-05-14T12:27:28.459Z,1.48
2023-05-14T12:32:39.465Z,1.67
2023-05-14T12:35:06.531Z,1.75
2023-05-14T12:37:33.482Z,1.83
2023-05-14T12:40:00.252Z,1.42
2023-05-14T12:42:27.077Z,1.70
2023-05-14T12:44:53.631Z,1.60
2023-05-14T12:47:20.645Z,1.98
2023-05-14T12:49:47.425Z,1.65
2023-05-14T12:54:43.664Z,1.73
2023-05-14T12:57:10.446Z,1.70
2023-05-14T12:59:37.340Z,1.65
2023-05-14T13:02:04.951Z,1.58
2023-05-14T13:04:31.591Z,1.60
2023-05-14T13:06:58.275Z,1.77
2023-05-14T13:09:25.309Z,3.63
2023-05-14T13:11:52.335Z,3.20
2023-05-14T13:14:20.157Z,1.90
2023-05-14T13:16:46.948Z,2.17
2023-05-14T13:19:13.867Z,2.00
2023-05-14T13:21:40.486Z,1.95
2023-05-14T13:24:07.537Z,2.50
2023-05-14T13:26:35.167Z,2.00
2023-05-14T13:29:02.187Z,2.47
2023-05-14T13:31:29.132Z,2.20
2023-05-14T13:33:59.109Z,2.13
2023-05-14T13:36:25.747Z,2.60
2023-05-14T13:38:52.488Z,1.33
2023-05-14T13:41:20.188Z,1.65
2023-05-14T13:43:46.710Z,1.57
2023-05-14T13:46:13.359Z,1.90
2023-05-14T13:48:40.162Z,2.50
2023-05-14T13:51:07.094Z,1.95
2023-05-14T13:53:33.692Z,2.15
2023-05-14T13:56:02.001Z,1.73
2023-05-14T13:58:28.648Z,2.00
2023-05-14T14:00:55.281Z,1.88
2023-05-14T14:03:21.938Z,1.50
2023-05-14T14:05:48.568Z,1.23
2023-05-14T14:08:23.427Z,1.50
2023-05-14T14:10:51.162Z,2.05
2023-05-14T14:13:17.780Z,2.05
2023-05-14T14:15:44.614Z,1.40
2023-05-14T14:18:11.487Z,1.95
2023-05-14T14:20:38.481Z,1.70
2023-05-14T14:23:05.113Z,2.00
2023-05-14T14:25:31.706Z,1.83
2023-05-14T14:27:58.420Z,1.48
2023-05-14T14:30:25.061Z,1.77
2023-05-14T14:32:51.658Z,1.60
2023-05-14T14:35:19.738Z,1.60
2023-05-14T14:37:50.760Z,1.80
2023-05-14T14:40:17.466Z,1.83
2023-05-14T14:42:44.507Z,1.98
2023-05-14T14:45:12.079Z,1.80
2023-05-14T14:47:38.959Z,1.40
2023-05-14T14:50:06.580Z,1.42
2023-05-14T14:52:34.701Z,1.52
2023-05-14T14:55:01.246Z,2.10
2023-05-14T14:57:28.015Z,2.00
2023-05-14T14:59:54.650Z,1.80
2023-05-14T15:02:21.237Z,1.55
2023-05-14T15:04:47.808Z,2.40
2023-05-14T15:07:16.612Z,2.28
2023-05-14T15:09:43.389Z,1.73
2023-05-14T15:12:11.005Z,2.13
2023-05-14T15:14:37.656Z,1.98
2023-05-14T15:17:04.622Z,3.65
2023-05-14T15:19:32.518Z,3.83
2023-05-14T15:21:59.143Z,3.00
2023-05-14T15:24:26.568Z,3.85
2023-05-14T15:26:53.703Z,3.30
2023-05-14T15:29:20.643Z,2.88
2023-05-14T15:31:47.429Z,2.80
2023-05-14T15:34:17.084Z,2.57
2023-05-14T15:36:43.610Z,2.70
2023-05-14T15:39:13.142Z,2.60
2023-05-14T15:41:39.834Z,1.98
2023-05-14T15:44:06.682Z,2.38
2023-05-14T15:46:33.339Z,2.50
2023-05-14T15:49:00.256Z,2.47
2023-05-14T15:51:26.927Z,2.03
2023-05-14T15:53:54.321Z,2.35
2023-05-14T15:56:23.968Z,1.95
2023-05-14T15:58:50.767Z,1.97
2023-05-14T16:01:18.884Z,2.13
2023-05-14T16:03:45.768Z,2.33
2023-05-14T16:06:12.505Z,2.70
2023-05-14T16:08:39.668Z,2.60
2023-05-14T16:11:07.715Z,3.60
2023-05-14T16:13:37.859Z,5.28
2023-05-14T16:16:04.790Z,3.35
2023-05-14T16:18:32.810Z,2.60
2023-05-14T16:20:59.586Z,3.00
2023-05-14T16:23:26.181Z,2.43
2023-05-14T16:25:52.934Z,1.75
2023-05-14T16:28:19.550Z,1.77
2023-05-14T16:30:46.357Z,1.58
2023-05-14T16:33:13.966Z,2.13
2023-05-14T16:35:40.581Z,2.10
2023-05-14T16:38:07.959Z,2.22
2023-05-14T16:40:34.528Z,1.88
2023-05-14T16:43:01.120Z,1.85
2023-05-14T16:45:27.921Z,1.60
2023-05-14T16:47:54.567Z,2.07
2023-05-14T16:50:21.156Z,1.92
2023-05-14T16:52:47.748Z,1.55
2023-05-14T16:55:14.668Z,1.95
2023-05-14T16:57:41.396Z,1.95
2023-05-14T17:00:09.597Z,1.80
2023-05-14T17:02:36.345Z,2.00
2023-05-14T17:05:04.369Z,1.90
2023-05-14T17:07:31.646Z,2.00
2023-05-14T17:10:00.105Z,2.50
2023-05-14T17:12:27.204Z,2.30
2023-05-14T17:14:53.748Z,2.33
2023-05-14T17:17:20.544Z,3.20
2023-05-14T17:19:47.242Z,3.38
2023-05-14T17:22:14.142Z,3.20
2023-05-14T17:24:41.060Z,2.10
2023-05-14T17:27:08.357Z,2.35
2023-05-14T17:29:34.933Z,2.58
2023-05-14T17:32:03.627Z,2.33
2023-05-14T17:34:30.270Z,2.22
2023-05-14T17:36:57.235Z,2.23
2023-05-14T17:39:23.779Z,2.05
2023-05-14T17:41:50.540Z,3.00
2023-05-14T17:44:17.114Z,2.45
2023-05-14T17:46:44.927Z,2.25
2023-05-14T17:49:12.113Z,2.70
2023-05-14T17:51:38.695Z,4.22
2023-05-14T17:54:05.318Z,2.80
2023-05-14T17:56:32.034Z,2.15
2023-05-14T17:58:58.606Z,2.45
2023-05-14T18:01:25.533Z,2.87
2023-05-14T18:03:52.376Z,2.35
2023-05-14T18:06:18.988Z,2.17
2023-05-14T18:08:45.605Z,2.35
2023-05-14T18:11:12.172Z,2.38
2023-05-14T18:13:38.734Z,2.90
2023-05-14T18:16:05.595Z,2.80
2023-05-14T18:18:32.265Z,2.80
2023-05-14T18:20:59.096Z,2.50
2023-05-14T18:23:25.765Z,3.03
2023-05-14T18:25:52.398Z,3.13
2023-05-14T18:28:19.415Z,3.00
2023-05-14T18:30:46.013Z,3.30
2023-05-14T18:33:12.704Z,3.42
2023-05-14T18:35:39.503Z,3.15
2023-05-14T18:38:08.096Z,3.57
2023-05-14T18:40:34.997Z,3.50
2023-05-14T18:43:01.624Z,3.88
2023-05-14T18:45:28.219Z,5.43
2023-05-14T18:47:55.447Z,4.88
2023-05-14T18:50:22.092Z,5.27
2023-05-14T18:52:48.668Z,4.82
2023-05-14T18:55:15.577Z,5.07
2023-05-14T18:57:42.392Z,4.82
2023-05-14T19:00:09.562Z,5.20
2023-05-14T19:02:36.264Z,5.13
2023-05-14T19:05:02.861Z,4.40
2023-05-14T19:07:30.834Z,5.03
2023-05-14T19:09:57.416Z,4.90
2023-05-14T19:12:24.055Z,4.72
2023-05-14T19:14:50.908Z,4.70
2023-05-14T19:17:19.222Z,5.20
2023-05-14T19:19:47.223Z,4.35
2023-05-14T19:22:14.021Z,5.40
2023-05-14T19:24:40.676Z,6.57
2023-05-14T19:27:08.314Z,7.57
2023-05-14T19:29:37.033Z,7.60
2023-05-14T19:32:05.104Z,7.82
2023-05-14T19:34:31.762Z,9.00
2023-05-14T19:36:58.672Z,10.68
2023-05-14T19:39:25.213Z,11.50
2023-05-14T19:41:51.766Z,12.38
2023-05-14T19:44:18.397Z,11.55
2023-05-14T19:46:45.385Z,12.77
2023-05-14T19:49:12.333Z,14.60
2023-05-14T19:51:39.895Z,14.10
2023-05-14T19:54:06.964Z,13.65
2023-05-14T19:56:33.544Z,12.18
2023-05-14T19:59:00.111Z,10.95
2023-05-14T20:01:27.603Z,9.63
2023-05-14T20:03:54.158Z,8.90
2023-05-14T20:06:20.804Z,8.65
2023-05-14T20:08:47.440Z,7.38
2023-05-14T20:11:15.831Z,6.82
2023-05-14T20:13:42.459Z,6.75
2023-05-14T20:16:09.177Z,6.47
2023-05-14T20:18:35.874Z,6.00
2023-05-14T20:21:02.511Z,5.90
2023-05-14T20:23:29.116Z,6.15
2023-05-14T20:25:56.127Z,4.70
2023-05-14T20:28:22.913Z,5.43
2023-05-14T20:30:49.627Z,4.85
2023-05-14T20:33:16.245Z,5.28
2023-05-14T20:35:44.250Z,5.32
2023-05-14T20:38:13.048Z,4.88
2023-05-14T20:40:39.914Z,4.80
2023-05-14T20:43:06.492Z,4.55
2023-05-14T20:45:33.304Z,4.50
2023-05-14T20:47:59.937Z,5.35
2023-05-14T20:50:27.989Z,4.30
2023-05-14T20:52:55.311Z,4.30
2023-05-14T20:55:22.028Z,4.07
2023-05-14T20:57:49.873Z,3.88
2023-05-14T21:00:17.068Z,4.55
2023-05-14T21:02:43.835Z,3.72
2023-05-14T21:05:10.624Z,4.03
2023-05-14T21:07:40.094Z,4.15
2023-05-14T21:10:08.730Z,4.00
2023-05-14T21:12:35.553Z,3.65
2023-05-14T21:15:02.192Z,3.88
2023-05-14T21:17:28.951Z,4.07
2023-05-14T21:19:55.556Z,3.25
2023-05-14T21:22:22.528Z,3.60
2023-05-14T21:24:50.863Z,4.50
2023-05-14T21:27:17.656Z,4.07
2023-05-14T21:29:46.565Z,3.70
2023-05-14T21:32:13.339Z,3.35
2023-05-14T21:34:40.257Z,4.03
2023-05-14T21:37:06.914Z,3.60
2023-05-14T21:39:33.544Z,3.20
2023-05-14T21:42:00.137Z,3.33
2023-05-14T21:44:26.728Z,3.22
2023-05-14T21:46:53.293Z,3.38
2023-05-14T21:49:19.875Z,2.85
2023-05-14T21:51:46.816Z,3.85
2023-05-14T21:54:14.226Z,3.00
2023-05-14T21:56:40.938Z,3.60
2023-05-14T21:59:07.844Z,4.32
2023-05-14T22:01:42.182Z,3.42
2023-05-14T22:04:17.732Z,3.05
2023-05-14T22:06:44.811Z,3.23
2023-05-14T22:09:11.623Z,3.03
2023-05-14T22:11:38.234Z,3.35
2023-05-14T22:14:05.038Z,3.22
2023-05-14T22:16:32.717Z,2.63
2023-05-14T22:18:59.441Z,2.73
2023-05-14T22:21:27.621Z,2.70
2023-05-14T22:23:54.204Z,3.00
2023-05-14T22:26:21.958Z,3.65
2023-05-14T22:28:49.838Z,3.22
2023-05-14T22:31:16.467Z,2.87
2023-05-14T22:33:43.050Z,2.85
2023-05-14T22:36:10.559Z,2.83
2023-05-14T22:38:38.959Z,3.47
2023-05-14T22:41:05.504Z,3.00
2023-05-14T22:43:32.127Z,2.97
2023-05-14T22:45:58.720Z,3.05
2023-05-14T22:48:25.361Z,3.08
2023-05-14T22:50:52.101Z,2.50
2023-05-14T22:53:18.745Z,2.63
2023-05-14T22:55:45.345Z,3.17
2023-05-14T22:58:12.180Z,3.20
2023-05-14T23:00:38.973Z,3.15
2023-05-14T23:03:05.635Z,3.15
2023-05-14T23:05:32.330Z,3.03
2023-05-14T23:07:59.163Z,2.90
2023-05-14T23:10:25.819Z,2.80
2023-05-14T23:12:52.448Z,2.75
2023-05-14T23:15:19.098Z,3.05
2023-05-14T23:17:45.728Z,2.80
2023-05-14T23:20:15.319Z,2.93
2023-05-14T23:22:42.139Z,2.70
2023-05-14T23:25:09.339Z,2.70
2023-05-14T23:27:35.974Z,3.00
2023-05-14T23:30:03.622Z,3.28
2023-05-14T23:32:30.314Z,2.60
2023-05-14T23:34:57.214Z,2.60
2023-05-14T23:37:23.976Z,2.72
2023-05-14T23:39:50.947Z,2.80
2023-05-14T23:42:17.578Z,2.47
2023-05-14T23:44:44.124Z,2.63
2023-05-14T23:47:10.849Z,2.65
2023-05-14T23:49:37.637Z,2.70
2023-05-14T23:52:04.461Z,2.88
2023-05-14T23:54:31.049Z,2.63
2023-05-14T23:59:40.278Z,2.35
